Aviation Digital Data Service (ADDS)

Output produced by METARs form (2254 UTC 23 May 2022)
found at http://www.aviationweather.gov/metar/data/
 
UTAA 232200Z 10006KT 9999 NSC 19/06 Q0996 R88/70D NOSIG
TAF UTAA 231645Z 2318/2418 10016KT 6000 SCT050 
     TEMPO 2318/2324 13012G22KT 
     BECMG 2400/2402 24018KT 
     TEMPO 2406/2412 30014G24KT 3000 DRDU 
     BECMG 2412/2414 33016KT
       
UTAT 232200Z 12010KT CAVOK 19/05 Q1002 R08/CLRD70 NOSIG
TAF UTAT 231640Z 2318/2418 09012KT CAVOK 
     TEMPO 2318/2323 14014KT
       
UTAM 232200Z 12008KT 6000 NSC 19/08 Q1002 R88/CLRD70 NOSIG
TAF UTAM 231630Z 2318/2418 12016KT 5000 NSC 
     TEMPO 2318/2404 09014G24KT 3000 DRDU SCT050 
     TEMPO 2404/2413 14016G26KT 2000 BLDU SCT030
       
UTAV 232200Z 11010KT CAVOK 19/09 Q1004 R31/CLRD70 NOSIG
TAF UTAV 231630Z 2318/2418 11010KT 5000 NSC 
     TEMPO 2318/2401 VRB04KT 2000 HZ FU SKC 
     BECMG 2401/2403 19014KT CAVOK 
     TEMPO 2403/2415 09016G26KT 3000 BLDU SCT050
       
UTAK 232200Z 01012KT 9999 SCT005 OVC100 15/12 Q0996 R34L/CLRD70 NOSIG
TAF AMD UTAK 232010Z 2320/2418 35024G34KT 5000 BKN010 SCT050CB BKN100 
     TEMPO 2320/2404 34028G38KT 2000 BLDU -RA BKN002 SCT050CB OVC100 
     PROB40 
     TEMPO 2320/2323 VRB32KT 2000 BLDU -TSSHRA 
     TEMPO 2404/2407 32026G36KT 3000 BLDU BKN005 SCT040CB OVC100